Time;durP1;ratioP1;P1;durP2;ratioP2;P2;SDS_P1;SDS_P2;PMS_P1;PMS_P2;Temp;Humidity;BMP_temperature;BMP_pressure;BME280_temperature;BME280_humidity;BME280_pressure;Samples;Min_cycle;Max_cycle;Signal;HPM_P1;HPM_P2
2024/03/31 00:00:16;;;;;;;66.33;29.80;;;15.40;1.00;;;;;;5105710;27;20479;-75
2024/03/31 00:02:43;;;;;;;61.07;28.87;;;15.30;1.00;;;;;;5107386;27;20445;-75
2024/03/31 00:05:09;;;;;;;82.20;30.97;;;15.30;1.00;;;;;;5104849;27;20549;-72
2024/03/31 00:07:36;;;;;;;72.90;31.93;;;15.20;1.00;;;;;;5107130;27;20460;-74
2024/03/31 00:10:03;;;;;;;60.53;28.00;;;15.10;1.00;;;;;;5105727;27;20541;-73
2024/03/31 00:12:31;;;;;;;73.30;30.73;;;15.20;1.00;;;;;;5103965;27;20466;-73
2024/03/31 00:14:58;;;;;;;69.60;30.37;;;15.20;1.00;;;;;;5109535;27;20460;-73
2024/03/31 00:17:25;;;;;;;74.03;30.43;;;15.30;1.00;;;;;;5092766;27;20461;-73
2024/03/31 00:19:52;;;;;;;68.07;29.23;;;15.20;1.00;;;;;;5097069;27;20973;-73
2024/03/31 00:22:19;;;;;;;59.63;30.53;;;15.20;1.00;;;;;;5080230;28;20466;-73
2024/03/31 00:24:44;;;;;;;64.93;27.80;;;15.30;1.00;;;;;;5099080;27;20965;-74
2024/03/31 00:27:12;;;;;;;62.93;30.17;;;15.40;1.00;;;;;;5106173;27;20524;-73
2024/03/31 00:29:38;;;;;;;69.03;31.03;;;15.30;1.00;;;;;;5087860;27;21174;-74
2024/03/31 00:32:07;;;;;;;59.63;28.43;;;15.30;1.00;;;;;;5089164;27;20575;-74
2024/03/31 00:34:33;;;;;;;54.17;28.97;;;15.30;1.00;;;;;;5100791;27;20898;-73
2024/03/31 00:37:00;;;;;;;59.33;27.00;;;15.30;1.00;;;;;;5097081;27;20497;-73
2024/03/31 00:39:26;;;;;;;73.90;30.57;;;15.40;1.00;;;;;;5105889;27;20470;-75
2024/03/31 00:41:53;;;;;;;65.10;30.40;;;15.40;1.00;;;;;;5104290;27;20953;-73
2024/03/31 00:44:19;;;;;;;72.17;31.00;;;15.40;1.00;;;;;;5108450;27;20557;-73
2024/03/31 00:46:46;;;;;;;56.10;29.03;;;15.30;1.00;;;;;;5103978;27;20477;-72
2024/03/31 00:49:13;;;;;;;71.77;29.97;;;15.10;1.00;;;;;;5105450;27;20575;-73
2024/03/31 00:51:40;;;;;;;66.03;31.93;;;14.90;1.00;;;;;;5104927;27;20610;-73
2024/03/31 00:54:07;;;;;;;60.07;28.37;;;15.00;1.00;;;;;;5108136;27;20520;-73
2024/03/31 00:56:34;;;;;;;61.60;29.90;;;15.00;1.00;;;;;;5108297;27;20523;-73
2024/03/31 00:59:00;;;;;;;62.67;30.40;;;15.00;1.00;;;;;;5107654;27;20556;-73
2024/03/31 01:01:28;;;;;;;62.33;30.70;;;15.00;1.00;;;;;;5105804;27;20462;-74
2024/03/31 01:03:53;;;;;;;68.93;31.40;;;14.90;1.00;;;;;;5105989;27;20526;-73
2024/03/31 01:06:24;;;;;;;67.57;29.57;;;15.00;1.00;;;;;;5100328;27;20881;-72
2024/03/31 01:08:52;;;;;;;66.03;29.60;;;15.00;1.00;;;;;;5083598;28;20481;-73
2024/03/31 01:11:20;;;;;;;57.93;27.37;;;15.00;1.00;;;;;;5083197;27;21267;-73
2024/03/31 01:13:47;;;;;;;68.97;28.93;;;15.00;1.00;;;;;;5083721;28;20550;-73
2024/03/31 01:16:15;;;;;;;67.03;28.50;;;14.90;1.00;;;;;;5085719;27;20469;-74
2024/03/31 01:18:41;;;;;;;67.53;29.67;;;14.90;1.00;;;;;;5080710;28;20650;-74
2024/03/31 01:21:09;;;;;;;69.20;29.13;;;15.00;1.00;;;;;;5104180;27;20462;-74
2024/03/31 01:23:44;;;;;;;70.60;31.03;;;15.10;1.00;;;;;;5103462;27;20466;-74
2024/03/31 01:26:13;;;;;;;65.47;29.80;;;15.10;1.00;;;;;;5101581;27;21178;-73
2024/03/31 01:28:39;;;;;;;59.97;27.77;;;15.10;1.00;;;;;;5087181;27;20562;-73
2024/03/31 01:31:06;;;;;;;51.73;26.50;;;15.10;1.00;;;;;;5089736;27;20468;-74
2024/03/31 01:33:32;;;;;;;56.53;27.00;;;15.10;1.00;;;;;;5106179;27;20515;-73
2024/03/31 01:36:01;;;;;;;62.73;28.33;;;15.20;1.00;;;;;;5083061;27;20523;-73
2024/03/31 01:38:27;;;;;;;62.30;28.57;;;15.20;1.00;;;;;;5087351;27;20856;-72
2024/03/31 01:40:54;;;;;;;54.37;27.83;;;15.10;1.00;;;;;;5080004;27;20463;-73
2024/03/31 01:43:22;;;;;;;62.30;27.93;;;15.00;1.00;;;;;;5085833;27;20510;-73
2024/03/31 01:45:49;;;;;;;57.87;27.03;;;15.00;1.00;;;;;;5092203;27;20457;-74
2024/03/31 01:48:15;;;;;;;59.70;26.93;;;15.00;1.00;;;;;;5085020;28;20524;-73
2024/03/31 01:50:42;;;;;;;59.53;25.73;;;15.00;1.00;;;;;;5094744;27;20446;-73
2024/03/31 01:53:08;;;;;;;63.03;26.67;;;15.00;1.00;;;;;;5102237;27;20453;-74
2024/03/31 01:55:35;;;;;;;53.43;24.93;;;15.00;1.00;;;;;;5105426;27;20551;-74
2024/03/31 01:58:01;;;;;;;72.43;27.47;;;14.90;1.00;;;;;;5105897;27;21068;-73
2024/03/31 02:00:29;;;;;;;70.63;27.57;;;15.00;1.00;;;;;;5105040;27;20461;-73
2024/03/31 02:02:55;;;;;;;65.20;26.50;;;15.00;1.00;;;;;;5103695;27;20457;-74
2024/03/31 02:05:23;;;;;;;65.80;29.57;;;15.00;1.00;;;;;;5102546;27;20547;-75
2024/03/31 02:07:50;;;;;;;48.93;25.10;;;15.00;1.00;;;;;;5090223;27;20529;-73
2024/03/31 02:10:17;;;;;;;50.83;24.40;;;14.90;1.00;;;;;;5081449;28;20462;-74
2024/03/31 02:12:43;;;;;;;54.53;24.00;;;14.90;1.00;;;;;;5081279;28;20470;-73
2024/03/31 02:15:10;;;;;;;50.33;26.63;;;14.90;1.00;;;;;;5082567;28;20490;-75
2024/03/31 02:17:37;;;;;;;60.53;25.33;;;14.90;1.00;;;;;;5084609;27;20466;-73
2024/03/31 02:20:07;;;;;;;56.43;27.23;;;14.90;1.00;;;;;;5084376;27;20515;-73
2024/03/31 02:22:33;;;;;;;57.57;25.80;;;14.80;1.00;;;;;;5084637;27;21011;-74
2024/03/31 02:25:00;;;;;;;61.57;25.00;;;14.70;1.00;;;;;;5084045;28;20454;-73
2024/03/31 02:27:25;;;;;;;61.50;24.30;;;14.60;1.00;;;;;;5083981;28;20823;-74
2024/03/31 02:29:53;;;;;;;50.90;26.60;;;14.70;1.00;;;;;;5085081;27;20472;-73
2024/03/31 02:32:19;;;;;;;70.40;27.73;;;14.50;1.00;;;;;;5088632;27;20240;-73
2024/03/31 02:34:47;;;;;;;63.23;27.23;;;14.50;1.00;;;;;;5085129;28;20475;-73
2024/03/31 02:37:13;;;;;;;62.30;25.07;;;14.50;1.00;;;;;;5085658;27;20957;-73
2024/03/31 02:39:40;;;;;;;61.30;24.50;;;14.50;1.00;;;;;;5099942;27;20540;-74
2024/03/31 02:42:07;;;;;;;57.27;27.23;;;14.50;1.00;;;;;;5108452;27;20538;-73
2024/03/31 02:44:33;;;;;;;63.93;28.40;;;14.50;1.00;;;;;;5102405;27;20470;-72
2024/03/31 02:47:00;;;;;;;66.77;27.07;;;14.50;1.00;;;;;;5101135;27;20450;-73
2024/03/31 02:49:26;;;;;;;56.33;24.10;;;14.50;1.00;;;;;;5104046;27;20489;-73
2024/03/31 02:51:55;;;;;;;55.10;25.67;;;14.40;1.00;;;;;;5109920;27;20589;-74
2024/03/31 02:54:21;;;;;;;61.70;29.23;;;14.40;1.00;;;;;;5109900;27;20540;-74
2024/03/31 02:56:47;;;;;;;60.90;27.50;;;14.40;1.00;;;;;;5106036;27;20474;-75
2024/03/31 02:59:16;;;;;;;57.80;24.03;;;14.20;1.00;;;;;;5104758;27;20997;-74
2024/03/31 03:01:42;;;;;;;55.30;23.70;;;14.30;1.00;;;;;;5107700;27;20471;-73
2024/03/31 03:04:08;;;;;;;53.93;25.03;;;14.20;1.00;;;;;;5106339;27;20464;-74
2024/03/31 03:06:35;;;;;;;60.60;26.90;;;14.10;1.00;;;;;;5110192;27;20989;-73
2024/03/31 03:09:04;;;;;;;54.40;24.60;;;14.10;1.00;;;;;;5093789;27;20490;-72
2024/03/31 03:11:30;;;;;;;52.53;25.00;;;14.00;1.00;;;;;;5089537;28;20472;-75
2024/03/31 03:13:57;;;;;;;53.60;24.53;;;14.10;1.00;;;;;;5085551;27;20481;-74
2024/03/31 03:16:23;;;;;;;65.43;26.30;;;14.10;1.00;;;;;;5102023;27;20574;-74
2024/03/31 03:18:51;;;;;;;61.63;27.70;;;14.00;1.00;;;;;;5103577;27;20548;-74
2024/03/31 03:21:17;;;;;;;58.53;24.80;;;13.90;1.00;;;;;;5083081;27;20454;-74
2024/03/31 03:23:44;;;;;;;63.57;27.20;;;13.90;1.00;;;;;;5085012;28;20456;-75
2024/03/31 03:26:11;;;;;;;59.00;25.83;;;13.90;1.00;;;;;;5084239;28;20957;-75
2024/03/31 03:28:38;;;;;;;57.80;26.97;;;13.80;1.00;;;;;;5086646;27;20465;-75
2024/03/31 03:31:04;;;;;;;52.93;26.83;;;13.70;1.00;;;;;;5083511;28;20454;-74
2024/03/31 03:33:31;;;;;;;56.83;25.10;;;13.70;1.00;;;;;;5090258;27;20450;-74
2024/03/31 03:36:02;;;;;;;55.30;24.87;;;13.70;1.00;;;;;;5106542;27;20514;-74
2024/03/31 03:38:29;;;;;;;63.03;27.20;;;13.60;1.00;;;;;;5106301;27;20971;-74
2024/03/31 03:40:55;;;;;;;52.47;24.40;;;13.50;1.00;;;;;;5107996;27;20455;-75
2024/03/31 03:43:23;;;;;;;58.13;27.00;;;13.40;1.00;;;;;;5106092;27;22834;-75
2024/03/31 03:45:50;;;;;;;57.57;26.30;;;13.40;1.00;;;;;;5106242;27;20476;-74
2024/03/31 03:48:16;;;;;;;60.13;26.63;;;13.50;1.00;;;;;;5105983;27;20487;-74
2024/03/31 03:50:43;;;;;;;56.00;25.70;;;13.50;1.00;;;;;;5102905;27;20556;-74
2024/03/31 03:53:09;;;;;;;53.77;25.53;;;13.50;1.00;;;;;;5105233;27;20506;-75
2024/03/31 03:55:36;;;;;;;64.57;27.40;;;13.60;1.00;;;;;;5103461;27;20531;-76
2024/03/31 03:58:01;;;;;;;64.10;26.47;;;13.60;1.00;;;;;;5104355;27;20565;-74
2024/03/31 04:00:30;;;;;;;55.20;23.83;;;13.60;1.00;;;;;;5098987;27;20536;-76
2024/03/31 04:02:56;;;;;;;59.47;24.47;;;13.60;1.00;;;;;;5083451;27;20454;-74
2024/03/31 04:05:23;;;;;;;57.03;25.30;;;13.60;1.00;;;;;;5083947;28;20494;-74
2024/03/31 04:07:49;;;;;;;57.07;24.63;;;13.50;1.00;;;;;;5098082;27;20891;-75
2024/03/31 04:10:16;;;;;;;62.00;26.40;;;13.60;1.00;;;;;;5102049;27;20462;-74
2024/03/31 04:12:42;;;;;;;62.87;26.97;;;13.50;1.00;;;;;;5083395;27;20512;-74
2024/03/31 04:15:09;;;;;;;55.97;24.00;;;13.40;1.00;;;;;;5106757;27;20481;-74
2024/03/31 04:17:38;;;;;;;49.40;22.27;;;13.40;1.00;;;;;;5106666;27;20455;-74
2024/03/31 04:20:06;;;;;;;63.20;24.63;;;13.40;1.00;;;;;;5105419;27;20535;-73
2024/03/31 04:22:32;;;;;;;50.73;23.60;;;13.40;1.00;;;;;;5104185;27;20461;-74
2024/03/31 04:24:59;;;;;;;58.73;24.33;;;13.40;1.00;;;;;;5105567;27;20472;-74
2024/03/31 04:27:25;;;;;;;57.23;25.30;;;13.40;1.00;;;;;;5105952;27;20996;-75
2024/03/31 04:29:52;;;;;;;42.87;23.80;;;13.40;1.00;;;;;;5104222;27;20460;-74
2024/03/31 04:32:18;;;;;;;55.13;24.10;;;13.40;1.00;;;;;;5105594;27;20464;-74
2024/03/31 04:34:46;;;;;;;54.47;25.40;;;13.40;1.00;;;;;;5107161;27;20496;-75
2024/03/31 04:37:12;;;;;;;56.57;26.07;;;13.40;1.00;;;;;;5083725;28;20515;-75
2024/03/31 04:39:39;;;;;;;58.57;24.50;;;13.40;1.00;;;;;;5085595;27;20524;-74
2024/03/31 04:42:05;;;;;;;61.07;26.97;;;13.40;1.00;;;;;;5086721;28;20494;-74
2024/03/31 04:44:32;;;;;;;63.70;24.73;;;13.30;1.00;;;;;;5086394;28;20489;-75
2024/03/31 04:46:58;;;;;;;49.00;24.03;;;13.30;1.00;;;;;;5084000;28;20536;-74
2024/03/31 04:49:25;;;;;;;54.80;24.90;;;13.30;1.00;;;;;;5084209;28;20463;-74
2024/03/31 04:51:52;;;;;;;53.97;24.60;;;13.20;1.00;;;;;;5083730;28;20554;-74
2024/03/31 04:54:21;;;;;;;57.60;25.60;;;13.20;1.00;;;;;;5101664;27;20912;-73
2024/03/31 04:56:47;;;;;;;58.73;25.77;;;13.10;1.00;;;;;;5105840;27;20473;-75
2024/03/31 04:59:14;;;;;;;49.00;25.17;;;13.10;1.00;;;;;;5107128;27;20465;-75
2024/03/31 05:01:40;;;;;;;66.10;25.33;;;13.00;1.00;;;;;;5094965;27;20835;-75
2024/03/31 05:04:07;;;;;;;52.83;23.60;;;13.10;1.00;;;;;;5080255;28;20978;-74
2024/03/31 05:06:33;;;;;;;48.70;24.13;;;13.00;1.00;;;;;;5082125;28;20506;-75
2024/03/31 05:09:03;;;;;;;54.70;24.03;;;12.90;1.00;;;;;;5087193;28;20546;-74
2024/03/31 05:11:29;;;;;;;53.43;25.40;;;12.80;1.00;;;;;;5081153;28;20483;-75
2024/03/31 05:13:55;;;;;;;54.90;26.37;;;12.90;1.00;;;;;;5082922;27;20477;-74
2024/03/31 05:16:21;;;;;;;49.20;24.00;;;12.90;1.00;;;;;;5082021;28;20511;-74
2024/03/31 05:18:51;;;;;;;57.50;25.87;;;12.90;1.00;;;;;;5084120;27;20473;-75
2024/03/31 05:21:17;;;;;;;53.30;23.47;;;13.00;1.00;;;;;;5101828;27;20463;-76
2024/03/31 05:23:46;;;;;;;56.37;24.83;;;12.90;1.00;;;;;;5102068;27;21313;-75
2024/03/31 05:26:14;;;;;;;51.63;23.77;;;12.90;1.00;;;;;;5105005;27;20477;-74
2024/03/31 05:28:41;;;;;;;63.67;26.20;;;12.80;1.00;;;;;;5102808;27;20493;-74
2024/03/31 05:31:07;;;;;;;49.00;23.60;;;12.80;1.00;;;;;;5103703;27;20550;-75
2024/03/31 05:33:35;;;;;;;56.40;24.63;;;12.70;1.00;;;;;;5101838;27;20483;-75
2024/03/31 05:36:01;;;;;;;50.60;24.57;;;12.70;1.00;;;;;;5102430;27;20475;-75
2024/03/31 05:38:28;;;;;;;56.97;23.73;;;12.70;1.00;;;;;;5105307;27;20547;-75
2024/03/31 05:40:55;;;;;;;49.07;23.73;;;12.70;1.00;;;;;;5103320;27;20485;-74
2024/03/31 05:43:24;;;;;;;46.43;23.87;;;12.60;1.00;;;;;;5104719;27;20476;-74
2024/03/31 05:45:50;;;;;;;62.43;25.20;;;12.60;1.00;;;;;;5103992;27;20506;-75
2024/03/31 05:48:17;;;;;;;47.27;24.13;;;12.50;1.00;;;;;;5101872;27;20930;-74
2024/03/31 05:50:43;;;;;;;56.30;28.10;;;12.40;1.00;;;;;;5100117;27;20457;-73
2024/03/31 05:53:09;;;;;;;59.77;24.67;;;12.30;1.00;;;;;;5104956;27;20478;-74
2024/03/31 05:55:36;;;;;;;48.07;25.40;;;12.30;1.00;;;;;;5101029;27;20455;-74
2024/03/31 05:58:02;;;;;;;51.40;24.37;;;12.40;1.00;;;;;;5101534;27;20435;-73
2024/03/31 06:00:30;;;;;;;52.77;23.97;;;12.50;1.00;;;;;;5101587;27;20544;-74
2024/03/31 06:02:57;;;;;;;68.50;25.20;;;12.60;1.00;;;;;;5102419;27;20522;-74
2024/03/31 06:05:23;;;;;;;51.10;24.30;;;12.80;1.00;;;;;;5100056;27;20467;-74
2024/03/31 06:07:51;;;;;;;62.93;26.17;;;12.80;1.00;;;;;;5105247;27;20479;-74
2024/03/31 06:10:18;;;;;;;49.17;25.40;;;12.90;1.00;;;;;;5102383;27;20955;-74
2024/03/31 06:12:44;;;;;;;58.60;25.70;;;13.00;1.00;;;;;;5101067;27;20483;-72
2024/03/31 06:15:11;;;;;;;48.43;26.20;;;13.00;1.00;;;;;;5104606;27;20489;-74
2024/03/31 06:17:39;;;;;;;55.33;24.50;;;13.10;1.00;;;;;;5104919;27;20468;-75
2024/03/31 06:20:07;;;;;;;64.70;25.83;;;13.20;1.00;;;;;;5093970;27;20459;-73
2024/03/31 06:22:38;;;;;;;59.23;25.17;;;13.20;1.00;;;;;;5102848;27;20562;-74
2024/03/31 06:25:04;;;;;;;50.67;24.37;;;13.30;1.00;;;;;;5104940;27;20578;-73
2024/03/31 06:27:31;;;;;;;42.07;24.47;;;13.30;1.00;;;;;;5110398;27;20463;-73
2024/03/31 06:29:58;;;;;;;54.00;25.60;;;13.30;1.00;;;;;;5107582;27;20472;-74
2024/03/31 06:32:25;;;;;;;58.37;25.57;;;13.40;1.00;;;;;;5104213;27;20465;-73
2024/03/31 06:34:52;;;;;;;43.63;24.53;;;13.40;1.00;;;;;;5107448;27;20927;-73
2024/03/31 06:37:19;;;;;;;56.30;25.33;;;13.50;1.00;;;;;;5106868;27;21018;-74
2024/03/31 06:39:45;;;;;;;49.70;24.60;;;13.60;1.00;;;;;;5103961;27;20472;-73
2024/03/31 06:42:15;;;;;;;51.70;24.07;;;13.70;1.00;;;;;;5103847;27;20507;-73
2024/03/31 06:44:41;;;;;;;52.77;26.10;;;13.80;1.00;;;;;;5105655;27;20474;-76
2024/03/31 06:47:08;;;;;;;51.87;25.10;;;13.80;1.00;;;;;;5102792;27;20460;-73
2024/03/31 06:49:34;;;;;;;52.90;24.50;;;13.90;1.00;;;;;;5105363;27;20472;-73
2024/03/31 06:52:02;;;;;;;47.23;23.80;;;14.00;1.00;;;;;;5105379;27;20937;-73
2024/03/31 06:54:28;;;;;;;53.23;25.13;;;14.10;1.00;;;;;;5103447;27;20578;-72
2024/03/31 06:56:55;;;;;;;53.53;26.20;;;14.20;1.00;;;;;;5102800;27;20484;-73
2024/03/31 06:59:21;;;;;;;57.63;26.83;;;14.40;1.00;;;;;;5105883;27;20466;-72
2024/03/31 07:01:48;;;;;;;51.70;24.30;;;14.50;1.00;;;;;;5105211;27;20517;-74
2024/03/31 07:04:15;;;;;;;56.53;27.57;;;14.70;1.00;;;;;;5106640;27;20555;-73
2024/03/31 07:06:42;;;;;;;54.13;25.53;;;14.80;1.00;;;;;;5088541;28;20568;-72
2024/03/31 07:09:10;;;;;;;58.47;25.17;;;14.90;1.00;;;;;;5097452;27;20420;-73
2024/03/31 07:11:39;;;;;;;43.83;24.80;;;14.90;1.00;;;;;;5105462;27;20685;-75
2024/03/31 07:14:05;;;;;;;59.50;28.17;;;15.10;1.00;;;;;;5106433;27;20461;-74
2024/03/31 07:16:32;;;;;;;58.80;26.87;;;15.10;1.00;;;;;;5105889;27;20453;-75
2024/03/31 07:18:58;;;;;;;41.47;22.80;;;15.20;1.00;;;;;;5100542;27;20535;-73
2024/03/31 07:21:25;;;;;;;52.97;25.03;;;15.40;1.00;;;;;;5104883;27;20495;-76
2024/03/31 07:23:51;;;;;;;49.87;24.30;;;15.50;1.00;;;;;;5104295;27;20445;-74
2024/03/31 07:26:20;;;;;;;58.97;25.00;;;15.60;1.00;;;;;;5106545;27;20469;-73
2024/03/31 07:28:45;;;;;;;52.80;26.07;;;15.60;1.00;;;;;;5108931;27;20506;-74
2024/03/31 07:31:12;;;;;;;57.57;25.13;;;15.70;1.00;;;;;;5106401;27;21034;-72
2024/03/31 07:33:38;;;;;;;61.07;25.90;;;15.70;1.00;;;;;;5105381;27;20534;-72
2024/03/31 07:36:06;;;;;;;56.97;25.37;;;15.70;1.00;;;;;;5082213;28;20467;-72
2024/03/31 07:38:31;;;;;;;62.67;27.43;;;15.80;1.00;;;;;;5082444;28;20459;-74
2024/03/31 07:40:58;;;;;;;59.80;27.23;;;15.70;1.00;;;;;;5086404;27;21030;-73
2024/03/31 07:43:26;;;;;;;65.37;26.83;;;15.70;1.00;;;;;;5083412;28;20559;-72
2024/03/31 07:45:53;;;;;;;55.63;26.30;;;15.70;1.00;;;;;;5085545;28;20551;-72
2024/03/31 07:48:20;;;;;;;58.97;27.77;;;15.70;1.00;;;;;;5080573;28;20469;-73
2024/03/31 07:50:47;;;;;;;58.87;24.20;;;15.90;1.00;;;;;;5083716;27;20914;-71
2024/03/31 07:53:13;;;;;;;58.47;26.43;;;15.90;1.00;;;;;;5083844;28;20973;-72
2024/03/31 07:55:40;;;;;;;50.23;24.40;;;15.90;1.00;;;;;;5081281;28;20479;-73
2024/03/31 07:58:05;;;;;;;46.37;24.20;;;16.00;1.00;;;;;;5085301;28;20981;-72
2024/03/31 08:00:34;;;;;;;65.70;26.17;;;16.00;1.00;;;;;;5084832;27;20482;-76
2024/03/31 08:03:00;;;;;;;58.00;27.03;;;16.10;1.00;;;;;;5085197;27;20449;-73
2024/03/31 08:05:28;;;;;;;53.47;25.20;;;16.20;1.00;;;;;;5098301;27;20950;-74
2024/03/31 08:07:54;;;;;;;57.17;27.60;;;16.20;1.00;;;;;;5083951;27;20528;-73
2024/03/31 08:10:21;;;;;;;50.53;24.87;;;16.20;1.00;;;;;;5080728;28;20510;-71
2024/03/31 08:12:47;;;;;;;50.33;25.23;;;16.40;1.00;;;;;;5082300;27;21066;-72
2024/03/31 08:15:14;;;;;;;53.17;26.17;;;16.60;1.00;;;;;;5076941;27;20452;-73
2024/03/31 08:17:41;;;;;;;69.67;28.67;;;16.70;1.00;;;;;;5078966;27;20791;-76
2024/03/31 08:20:08;;;;;;;57.90;26.70;;;16.60;1.00;;;;;;5082283;27;20468;-76
2024/03/31 08:22:35;;;;;;;62.67;28.30;;;16.90;1.00;;;;;;5076455;28;20460;-75
2024/03/31 08:25:02;;;;;;;70.07;27.07;;;17.10;1.00;;;;;;5075673;27;20512;-74
2024/03/31 08:27:28;;;;;;;56.80;26.13;;;17.40;1.00;;;;;;5078509;27;20464;-73
2024/03/31 08:29:55;;;;;;;56.97;26.73;;;17.60;1.00;;;;;;5079562;27;20679;-73
2024/03/31 08:32:21;;;;;;;49.97;26.43;;;17.70;1.00;;;;;;5075593;28;20474;-74
2024/03/31 08:34:50;;;;;;;67.87;27.87;;;18.00;1.00;;;;;;5082822;27;20451;-74
2024/03/31 08:37:16;;;;;;;53.13;25.33;;;18.20;1.00;;;;;;5079542;28;20462;-75
2024/03/31 08:39:43;;;;;;;46.50;25.97;;;18.40;1.00;;;;;;5079692;27;21042;-74
2024/03/31 08:42:17;;;;;;;58.63;25.60;;;18.60;1.00;;;;;;5084559;27;20538;-74
2024/03/31 08:44:46;;;;;;;68.87;28.07;;;18.40;1.00;;;;;;5074917;28;20464;-74
2024/03/31 08:47:13;;;;;;;57.77;26.77;;;18.50;1.00;;;;;;5078491;28;20451;-73
2024/03/31 08:49:41;;;;;;;65.80;26.70;;;18.90;1.00;;;;;;5077599;27;20473;-74
2024/03/31 08:52:10;;;;;;;59.03;24.97;;;19.20;1.00;;;;;;5081843;27;20852;-75
2024/03/31 08:54:39;;;;;;;58.73;26.20;;;19.20;1.00;;;;;;5078017;27;20466;-75
2024/03/31 08:57:05;;;;;;;67.90;26.67;;;19.40;1.00;;;;;;5083213;27;20545;-73
2024/03/31 08:59:32;;;;;;;57.73;27.23;;;19.60;1.00;;;;;;5084918;27;20932;-74
2024/03/31 09:01:59;;;;;;;60.30;26.80;;;19.90;1.00;;;;;;5082327;28;20557;-73
2024/03/31 09:04:26;;;;;;;50.63;25.40;;;20.00;1.00;;;;;;5092438;27;20471;-75
2024/03/31 09:06:52;;;;;;;57.87;25.93;;;20.00;1.00;;;;;;5082645;27;20872;-75
2024/03/31 09:09:24;;;;;;;55.60;26.03;;;20.20;1.00;;;;;;5099158;27;20478;-74
2024/03/31 09:11:51;;;;;;;49.87;24.37;;;20.30;1.00;;;;;;5104412;27;20466;-73
2024/03/31 09:14:19;;;;;;;62.43;26.20;;;20.30;1.00;;;;;;5104835;27;20458;-73
2024/03/31 09:16:47;;;;;;;55.17;25.70;;;20.30;1.00;;;;;;5099856;27;20933;-78
2024/03/31 09:19:14;;;;;;;60.27;25.93;;;20.50;1.00;;;;;;5080038;28;20606;-76
2024/03/31 09:21:45;;;;;;;57.00;24.87;;;20.70;1.00;;;;;;5084758;28;20581;-74
2024/03/31 09:24:12;;;;;;;56.50;24.10;;;20.60;1.00;;;;;;5085026;28;20460;-75
2024/03/31 09:26:41;;;;;;;59.30;24.70;;;20.60;1.00;;;;;;5082877;28;22003;-75
2024/03/31 09:29:10;;;;;;;56.33;24.63;;;20.30;1.00;;;;;;5083751;28;20461;-75
2024/03/31 09:31:36;;;;;;;60.50;25.23;;;20.50;1.00;;;;;;5084983;28;20542;-75
2024/03/31 09:34:03;;;;;;;60.23;25.47;;;21.30;1.00;;;;;;5084652;27;20473;-75
2024/03/31 09:36:29;;;;;;;61.03;25.60;;;21.90;1.00;;;;;;5096655;27;20489;-74
2024/03/31 09:38:57;;;;;;;68.40;26.77;;;22.40;1.00;;;;;;5100976;27;21087;-75
2024/03/31 09:41:23;;;;;;;49.90;24.77;;;23.20;1.00;;;;;;5107233;27;20313;-75
2024/03/31 09:43:51;;;;;;;57.23;26.10;;;23.90;1.00;;;;;;5103948;27;20619;-74
2024/03/31 09:46:18;;;;;;;56.33;26.07;;;24.10;1.00;;;;;;5107360;27;21086;-75
2024/03/31 09:48:48;;;;;;;53.50;24.97;;;24.50;1.00;;;;;;5104273;27;20555;-75
2024/03/31 09:51:20;;;;;;;52.30;26.00;;;24.60;1.00;;;;;;5105368;27;22480;-75
2024/03/31 09:53:54;;;;;;;47.17;24.63;;;24.90;1.00;;;;;;5103071;27;20931;-75
2024/03/31 09:56:25;;;;;;;63.80;28.50;;;24.80;1.00;;;;;;5098603;27;20643;-76
2024/03/31 09:58:56;;;;;;;56.97;27.17;;;25.20;1.00;;;;;;5082319;28;20494;-75
2024/03/31 10:01:23;;;;;;;59.13;26.40;;;25.60;1.00;;;;;;5080653;28;20644;-75
2024/03/31 10:03:53;;;;;;;53.20;24.00;;;26.00;1.00;;;;;;5082789;28;20510;-74
2024/03/31 10:06:20;;;;;;;54.33;25.77;;;26.50;1.00;;;;;;5085324;28;20462;-76
2024/03/31 10:08:47;;;;;;;62.33;26.90;;;26.70;1.00;;;;;;5084569;27;20505;-76
2024/03/31 10:11:15;;;;;;;52.97;25.40;;;27.00;1.00;;;;;;5087251;28;20479;-76
2024/03/31 10:13:43;;;;;;;51.77;25.43;;;27.40;1.00;;;;;;5092408;27;20481;-74
2024/03/31 10:16:12;;;;;;;53.17;26.37;;;27.80;1.00;;;;;;5106801;27;20463;-74
2024/03/31 10:18:39;;;;;;;52.93;26.00;;;28.00;1.00;;;;;;5088876;27;20479;-75
2024/03/31 10:21:06;;;;;;;53.73;24.40;;;28.30;1.00;;;;;;5091096;27;20520;-74
2024/03/31 10:23:34;;;;;;;59.00;27.90;;;28.30;1.00;;;;;;5110702;27;20561;-75
2024/03/31 10:26:00;;;;;;;56.03;26.70;;;28.50;1.00;;;;;;5105664;27;20990;-74
2024/03/31 10:28:29;;;;;;;50.27;26.57;;;28.80;1.00;;;;;;5109805;27;20587;-74
2024/03/31 10:30:55;;;;;;;79.23;28.93;;;29.30;1.00;;;;;;5109868;27;20466;-74
2024/03/31 10:33:23;;;;;;;62.50;26.70;;;29.30;1.00;;;;;;5103945;27;20469;-74
2024/03/31 10:35:51;;;;;;;54.53;25.70;;;29.30;1.00;;;;;;5106780;27;20460;-74
2024/03/31 10:38:18;;;;;;;59.30;25.83;;;29.00;1.00;;;;;;5107153;27;20465;-74
2024/03/31 10:40:46;;;;;;;52.40;25.50;;;28.90;1.00;;;;;;5095965;27;20462;-75
2024/03/31 10:43:13;;;;;;;60.27;28.50;;;28.90;1.00;;;;;;5086091;28;20545;-74
2024/03/31 10:45:39;;;;;;;65.70;25.63;;;29.20;1.00;;;;;;5084018;28;20651;-75
2024/03/31 10:48:07;;;;;;;56.97;26.60;;;29.70;1.00;;;;;;5086788;27;20691;-74
2024/03/31 10:50:41;;;;;;;48.47;24.97;;;30.10;1.00;;;;;;5089021;27;20547;-74
2024/03/31 10:53:09;;;;;;;50.53;24.30;;;30.00;1.00;;;;;;5105910;27;21033;-75
2024/03/31 10:55:35;;;;;;;51.70;25.30;;;30.20;1.00;;;;;;5108338;27;20477;-74
2024/03/31 10:58:02;;;;;;;60.13;27.50;;;30.10;1.00;;;;;;5093590;27;20457;-75
2024/03/31 11:00:35;;;;;;;54.57;24.57;;;30.40;1.00;;;;;;5089954;27;21248;-74
2024/03/31 11:03:08;;;;;;;52.00;24.23;;;30.80;1.00;;;;;;5096252;27;20463;-76
2024/03/31 11:05:38;;;;;;;54.50;23.33;;;30.90;1.00;;;;;;5108184;27;20454;-74
2024/03/31 11:08:05;;;;;;;50.17;26.03;;;31.20;1.00;;;;;;5098032;27;21010;-77
2024/03/31 11:10:32;;;;;;;58.37;25.20;;;31.30;1.00;;;;;;5087786;28;20489;-73
2024/03/31 11:12:59;;;;;;;53.10;24.97;;;31.10;1.00;;;;;;5095331;27;20461;-74
2024/03/31 11:15:27;;;;;;;54.10;24.73;;;30.40;1.00;;;;;;5088834;28;20471;-74
2024/03/31 11:17:54;;;;;;;58.63;26.30;;;30.80;1.00;;;;;;5089097;27;20528;-76
2024/03/31 11:20:22;;;;;;;54.50;24.20;;;31.10;1.00;;;;;;5087792;27;20455;-75
2024/03/31 11:22:52;;;;;;;56.23;27.37;;;31.20;1.00;;;;;;5086263;28;20983;-74
2024/03/31 11:25:18;;;;;;;60.90;25.50;;;31.50;1.00;;;;;;5089750;28;20454;-74
2024/03/31 11:27:46;;;;;;;50.30;24.73;;;31.80;1.00;;;;;;5088358;27;20474;-74
2024/03/31 11:30:14;;;;;;;49.40;23.87;;;32.10;1.00;;;;;;5093518;27;20462;-73
2024/03/31 11:32:41;;;;;;;56.73;24.87;;;32.30;1.00;;;;;;5095629;27;20462;-74
2024/03/31 11:35:08;;;;;;;57.13;25.73;;;32.00;1.00;;;;;;5088089;27;20482;-71
2024/03/31 11:37:35;;;;;;;50.93;24.80;;;32.00;1.00;;;;;;5095080;27;21065;-74
2024/03/31 11:40:04;;;;;;;49.27;24.03;;;32.30;1.00;;;;;;5090156;27;20471;-76
2024/03/31 11:42:31;;;;;;;54.57;24.17;;;32.00;1.00;;;;;;5091248;27;20482;-74
2024/03/31 11:44:57;;;;;;;56.27;24.53;;;32.30;1.00;;;;;;5085371;28;20542;-74
2024/03/31 11:47:24;;;;;;;49.20;23.27;;;32.80;1.00;;;;;;5092944;27;20557;-75
2024/03/31 11:49:50;;;;;;;62.10;24.33;;;33.10;1.00;;;;;;5104972;27;20572;-75
2024/03/31 11:52:18;;;;;;;53.40;23.57;;;33.50;1.00;;;;;;5108135;27;20464;-74
2024/03/31 11:54:44;;;;;;;51.60;24.70;;;33.70;1.00;;;;;;5105891;27;20477;-74
2024/03/31 11:57:12;;;;;;;52.67;25.03;;;33.60;1.00;;;;;;5109563;27;20829;-75
2024/03/31 11:59:38;;;;;;;49.30;24.07;;;33.60;1.00;;;;;;5086310;27;20473;-74
2024/03/31 12:02:05;;;;;;;46.57;23.80;;;33.50;1.00;;;;;;5087017;28;20453;-74
2024/03/31 12:04:31;;;;;;;45.37;24.23;;;33.30;1.00;;;;;;5086120;28;20260;-74
2024/03/31 12:06:59;;;;;;;48.23;21.60;;;33.50;1.00;;;;;;5083656;27;20565;-75
2024/03/31 12:09:25;;;;;;;51.13;23.10;;;33.80;1.00;;;;;;5084447;28;20454;-74
2024/03/31 12:11:52;;;;;;;47.53;22.53;;;33.40;1.00;;;;;;5102953;27;20567;-73
2024/03/31 12:14:21;;;;;;;39.70;20.23;;;33.30;1.00;;;;;;5106886;27;20539;-74
2024/03/31 12:16:48;;;;;;;43.47;21.40;;;33.60;1.00;;;;;;5107328;27;20530;-74
2024/03/31 12:19:13;;;;;;;42.03;21.90;;;33.50;1.00;;;;;;5107940;27;20555;-73
2024/03/31 12:21:41;;;;;;;41.63;21.27;;;32.70;1.00;;;;;;5104810;27;20596;-72
2024/03/31 12:24:09;;;;;;;45.17;21.13;;;32.10;1.00;;;;;;5106414;27;20285;-74
2024/03/31 12:26:36;;;;;;;42.17;19.33;;;32.10;1.00;;;;;;5103034;27;20492;-75
2024/03/31 12:29:03;;;;;;;35.30;20.40;;;32.40;1.00;;;;;;5104290;27;20456;-74
2024/03/31 12:31:32;;;;;;;51.10;21.03;;;32.60;1.00;;;;;;5106224;27;20458;-74
2024/03/31 12:33:58;;;;;;;53.83;21.80;;;32.70;1.00;;;;;;5104306;27;20507;-74